sensor_id;sensor_type;location;lat;lon;timestamp;pressure;altitude;pressure_sealevel;temperature;humidity
53715;BME280;39608;55.630;37.864;2023-08-12T00:03:13;99711.94;;;22.49;67.22
53715;BME280;39608;55.630;37.864;2023-08-12T00:08:16;99743.09;;;22.46;68.34
53715;BME280;39608;55.630;37.864;2023-08-12T00:13:18;99732.28;;;22.37;68.46
53715;BME280;39608;55.630;37.864;2023-08-12T00:18:22;99769.47;;;22.20;69.52
53715;BME280;39608;55.630;37.864;2023-08-12T00:23:25;99752.94;;;22.01;70.14
53715;BME280;39608;55.630;37.864;2023-08-12T00:28:27;99747.78;;;21.99;69.81
53715;BME280;39608;55.630;37.864;2023-08-12T00:33:29;99756.13;;;22.03;70.25
53715;BME280;39608;55.630;37.864;2023-08-12T00:38:33;99754.28;;;22.11;70.40
53715;BME280;39608;55.630;37.864;2023-08-12T00:43:35;99760.19;;;22.09;69.70
53715;BME280;39608;55.630;37.864;2023-08-12T00:48:37;99751.41;;;22.03;69.76
53715;BME280;39608;55.630;37.864;2023-08-12T00:53:40;99748.19;;;22.01;70.62
53715;BME280;39608;55.630;37.864;2023-08-12T00:58:43;99734.25;;;21.94;70.73
53715;BME280;39608;55.630;37.864;2023-08-12T01:03:45;99738.31;;;22.00;69.99
53715;BME280;39608;55.630;37.864;2023-08-12T01:08:49;99755.09;;;22.11;69.54
53715;BME280;39608;55.630;37.864;2023-08-12T01:14:03;99757.69;;;22.24;69.28
53715;BME280;39608;55.630;37.864;2023-08-12T01:19:11;99760.84;;;22.26;68.82
53715;BME280;39608;55.630;37.864;2023-08-12T01:24:20;99741.75;;;22.17;69.36
53715;BME280;39608;55.630;37.864;2023-08-12T01:29:22;99736.97;;;22.14;69.93
53715;BME280;39608;55.630;37.864;2023-08-12T01:34:28;99725.94;;;22.14;69.66
53715;BME280;39608;55.630;37.864;2023-08-12T01:39:33;99732.00;;;22.00;69.77
53715;BME280;39608;55.630;37.864;2023-08-12T01:44:37;99717.56;;;21.87;70.08
53715;BME280;39608;55.630;37.864;2023-08-12T01:49:39;99707.19;;;21.80;69.78
53715;BME280;39608;55.630;37.864;2023-08-12T01:54:42;99708.06;;;21.84;69.31
53715;BME280;39608;55.630;37.864;2023-08-12T01:59:44;99702.81;;;21.79;69.34
53715;BME280;39608;55.630;37.864;2023-08-12T02:04:46;99692.66;;;21.83;69.59
53715;BME280;39608;55.630;37.864;2023-08-12T02:09:50;99703.03;;;21.90;69.44
53715;BME280;39608;55.630;37.864;2023-08-12T02:14:52;99705.53;;;21.76;69.61
53715;BME280;39608;55.630;37.864;2023-08-12T02:19:54;99683.75;;;21.51;70.56
53715;BME280;39608;55.630;37.864;2023-08-12T02:24:57;99694.78;;;21.51;70.28
53715;BME280;39608;55.630;37.864;2023-08-12T02:29:59;99704.53;;;21.45;70.41
53715;BME280;39608;55.630;37.864;2023-08-12T02:35:01;99715.09;;;21.43;70.20
53715;BME280;39608;55.630;37.864;2023-08-12T02:40:06;99716.22;;;21.58;70.78
53715;BME280;39608;55.630;37.864;2023-08-12T02:45:09;99698.69;;;21.50;70.23
53715;BME280;39608;55.630;37.864;2023-08-12T02:50:11;99697.97;;;21.53;70.14
53715;BME280;39608;55.630;37.864;2023-08-12T02:55:15;99700.47;;;21.58;69.98
53715;BME280;39608;55.630;37.864;2023-08-12T03:00:17;99689.38;;;21.55;69.59
53715;BME280;39608;55.630;37.864;2023-08-12T03:05:19;99646.41;;;21.37;69.72
53715;BME280;39608;55.630;37.864;2023-08-12T03:10:23;99643.38;;;21.23;70.81
53715;BME280;39608;55.630;37.864;2023-08-12T03:15:25;99641.72;;;21.18;70.76
53715;BME280;39608;55.630;37.864;2023-08-12T03:20:27;99649.41;;;21.29;70.80
53715;BME280;39608;55.630;37.864;2023-08-12T03:25:30;99637.44;;;21.41;70.35
53715;BME280;39608;55.630;37.864;2023-08-12T03:30:32;99646.88;;;21.59;68.80
53715;BME280;39608;55.630;37.864;2023-08-12T03:35:34;99661.41;;;21.79;68.21
53715;BME280;39608;55.630;37.864;2023-08-12T03:40:39;99679.94;;;22.02;68.01
53715;BME280;39608;55.630;37.864;2023-08-12T03:45:42;99662.28;;;22.07;67.45
53715;BME280;39608;55.630;37.864;2023-08-12T03:50:44;99657.44;;;22.00;67.38
53715;BME280;39608;55.630;37.864;2023-08-12T03:55:49;99669.72;;;22.02;67.61
53715;BME280;39608;55.630;37.864;2023-08-12T04:00:51;99680.03;;;22.05;67.45
53715;BME280;39608;55.630;37.864;2023-08-12T04:05:53;99676.63;;;22.16;67.72
53715;BME280;39608;55.630;37.864;2023-08-12T04:10:57;99679.28;;;22.32;66.54
53715;BME280;39608;55.630;37.864;2023-08-12T04:15:59;99648.41;;;22.26;66.48
53715;BME280;39608;55.630;37.864;2023-08-12T04:21:01;99674.84;;;22.27;66.33
53715;BME280;39608;55.630;37.864;2023-08-12T04:26:04;99695.66;;;22.21;66.64
53715;BME280;39608;55.630;37.864;2023-08-12T04:31:07;99677.31;;;22.09;66.67
53715;BME280;39608;55.630;37.864;2023-08-12T04:36:09;99693.69;;;22.21;65.53
53715;BME280;39608;55.630;37.864;2023-08-12T04:41:13;99689.78;;;22.46;64.07
53715;BME280;39608;55.630;37.864;2023-08-12T04:46:15;99689.69;;;22.65;62.08
53715;BME280;39608;55.630;37.864;2023-08-12T04:51:17;99712.75;;;22.77;61.84
53715;BME280;39608;55.630;37.864;2023-08-12T04:56:20;99694.47;;;22.68;61.57
53715;BME280;39608;55.630;37.864;2023-08-12T05:01:22;99698.75;;;22.66;61.78
53715;BME280;39608;55.630;37.864;2023-08-12T05:06:24;99684.88;;;22.62;62.83
53715;BME280;39608;55.630;37.864;2023-08-12T05:11:28;99694.28;;;22.58;63.50
53715;BME280;39608;55.630;37.864;2023-08-12T05:16:30;99701.06;;;22.14;64.68
53715;BME280;39608;55.630;37.864;2023-08-12T05:21:32;99681.84;;;21.75;66.18
53715;BME280;39608;55.630;37.864;2023-08-12T05:26:35;99653.16;;;21.60;65.76
53715;BME280;39608;55.630;37.864;2023-08-12T05:31:37;99634.72;;;21.64;65.52
53715;BME280;39608;55.630;37.864;2023-08-12T05:36:39;99598.78;;;21.60;66.19
53715;BME280;39608;55.630;37.864;2023-08-12T05:41:43;99597.44;;;21.74;65.76
53715;BME280;39608;55.630;37.864;2023-08-12T05:46:45;99603.81;;;21.78;65.69
53715;BME280;39608;55.630;37.864;2023-08-12T05:51:47;99588.53;;;21.84;65.38
53715;BME280;39608;55.630;37.864;2023-08-12T05:56:50;99595.56;;;22.04;64.80
53715;BME280;39608;55.630;37.864;2023-08-12T06:01:53;99570.59;;;22.24;63.70
53715;BME280;39608;55.630;37.864;2023-08-12T06:06:55;99547.63;;;22.43;63.05
53715;BME280;39608;55.630;37.864;2023-08-12T06:11:59;99559.91;;;22.80;61.94
53715;BME280;39608;55.630;37.864;2023-08-12T06:17:01;99558.44;;;23.20;59.90
53715;BME280;39608;55.630;37.864;2023-08-12T06:22:03;99568.44;;;23.77;58.13
53715;BME280;39608;55.630;37.864;2023-08-12T06:27:06;99581.13;;;24.33;56.85
53715;BME280;39608;55.630;37.864;2023-08-12T06:32:08;99588.06;;;24.61;55.57
53715;BME280;39608;55.630;37.864;2023-08-12T06:37:13;99594.03;;;24.70;55.41
53715;BME280;39608;55.630;37.864;2023-08-12T06:42:16;99586.97;;;24.84;55.05
53715;BME280;39608;55.630;37.864;2023-08-12T06:47:18;99594.94;;;24.96;54.15
53715;BME280;39608;55.630;37.864;2023-08-12T06:52:20;99587.09;;;25.27;53.25
53715;BME280;39608;55.630;37.864;2023-08-12T06:57:24;99590.75;;;25.71;52.47
53715;BME280;39608;55.630;37.864;2023-08-12T07:02:26;99586.78;;;26.01;50.96
53715;BME280;39608;55.630;37.864;2023-08-12T07:07:28;99578.06;;;26.24;50.99
53715;BME280;39608;55.630;37.864;2023-08-12T07:12:32;99575.22;;;26.53;50.26
53715;BME280;39608;55.630;37.864;2023-08-12T07:17:34;99575.16;;;26.63;49.19
53715;BME280;39608;55.630;37.864;2023-08-12T07:22:36;99571.59;;;26.59;49.96
53715;BME280;39608;55.630;37.864;2023-08-12T07:27:39;99568.91;;;26.27;50.32
53715;BME280;39608;55.630;37.864;2023-08-12T07:32:41;99584.41;;;25.77;53.89
53715;BME280;39608;55.630;37.864;2023-08-12T07:37:43;99571.44;;;24.61;57.73
53715;BME280;39608;55.630;37.864;2023-08-12T07:42:46;99586.69;;;23.85;59.94
53715;BME280;39608;55.630;37.864;2023-08-12T07:47:49;99580.56;;;23.20;61.08
53715;BME280;39608;55.630;37.864;2023-08-12T07:52:51;99606.31;;;22.94;62.26
53715;BME280;39608;55.630;37.864;2023-08-12T07:57:54;99617.97;;;22.80;63.80
53715;BME280;39608;55.630;37.864;2023-08-12T08:02:56;99566.91;;;22.70;65.05
53715;BME280;39608;55.630;37.864;2023-08-12T08:07:59;99584.66;;;22.38;65.84
53715;BME280;39608;55.630;37.864;2023-08-12T08:13:03;99620.59;;;22.38;65.52
53715;BME280;39608;55.630;37.864;2023-08-12T08:18:05;99593.75;;;22.16;66.58
53715;BME280;39608;55.630;37.864;2023-08-12T08:23:07;99593.53;;;22.01;67.00
53715;BME280;39608;55.630;37.864;2023-08-12T08:28:10;99588.19;;;22.12;66.54
53715;BME280;39608;55.630;37.864;2023-08-12T08:33:12;99606.13;;;22.26;66.18
53715;BME280;39608;55.630;37.864;2023-08-12T08:38:15;99637.19;;;22.69;64.00
53715;BME280;39608;55.630;37.864;2023-08-12T08:43:21;99623.09;;;23.42;62.66
53715;BME280;39608;55.630;37.864;2023-08-12T08:48:23;99612.09;;;23.90;62.40
53715;BME280;39608;55.630;37.864;2023-08-12T08:53:26;99612.28;;;24.16;60.22
53715;BME280;39608;55.630;37.864;2023-08-12T08:58:30;99626.25;;;24.30;61.26
53715;BME280;39608;55.630;37.864;2023-08-12T09:03:32;99638.53;;;24.33;60.46
53715;BME280;39608;55.630;37.864;2023-08-12T09:08:36;99624.47;;;24.04;61.48
53715;BME280;39608;55.630;37.864;2023-08-12T09:13:40;99628.34;;;23.54;62.65
53715;BME280;39608;55.630;37.864;2023-08-12T09:18:43;99642.69;;;23.26;63.70
53715;BME280;39608;55.630;37.864;2023-08-12T09:23:45;99668.78;;;22.98;63.75
53715;BME280;39608;55.630;37.864;2023-08-12T09:28:48;99656.00;;;22.86;64.75
53715;BME280;39608;55.630;37.864;2023-08-12T09:33:51;99641.19;;;22.71;65.35
53715;BME280;39608;55.630;37.864;2023-08-12T09:38:53;99622.91;;;22.63;65.47
53715;BME280;39608;55.630;37.864;2023-08-12T09:43:56;99610.81;;;22.75;65.39
53715;BME280;39608;55.630;37.864;2023-08-12T09:48:58;99590.16;;;22.65;65.20
53715;BME280;39608;55.630;37.864;2023-08-12T09:54:00;99587.09;;;22.44;66.23
53715;BME280;39608;55.630;37.864;2023-08-12T09:59:05;99621.94;;;22.52;66.65
53715;BME280;39608;55.630;37.864;2023-08-12T10:04:11;99594.41;;;22.32;66.64
53715;BME280;39608;55.630;37.864;2023-08-12T10:09:15;99625.34;;;22.15;67.60
53715;BME280;39608;55.630;37.864;2023-08-12T10:14:20;99627.97;;;22.08;67.08
53715;BME280;39608;55.630;37.864;2023-08-12T10:19:23;99606.88;;;21.96;68.66
53715;BME280;39608;55.630;37.864;2023-08-12T10:24:27;99610.25;;;21.85;67.78
53715;BME280;39608;55.630;37.864;2023-08-12T10:29:30;99619.63;;;21.81;69.05
53715;BME280;39608;55.630;37.864;2023-08-12T10:34:32;99624.00;;;21.82;69.57
53715;BME280;39608;55.630;37.864;2023-08-12T10:39:35;99595.34;;;21.90;69.06
53715;BME280;39608;55.630;37.864;2023-08-12T10:44:50;99596.97;;;22.18;67.97
53715;BME280;39608;55.630;37.864;2023-08-12T10:49:53;99615.34;;;22.07;68.55
53715;BME280;39608;55.630;37.864;2023-08-12T10:54:55;99631.09;;;22.33;67.95
53715;BME280;39608;55.630;37.864;2023-08-12T11:00:20;99631.69;;;22.42;67.96
53715;BME280;39608;55.630;37.864;2023-08-12T11:05:25;99639.66;;;22.24;68.26
53715;BME280;39608;55.630;37.864;2023-08-12T11:10:37;99669.38;;;22.31;67.59
53715;BME280;39608;55.630;37.864;2023-08-12T11:15:42;99685.34;;;22.41;68.14
53715;BME280;39608;55.630;37.864;2023-08-12T11:20:48;99682.22;;;21.96;68.67
53715;BME280;39608;55.630;37.864;2023-08-12T11:25:51;99656.38;;;21.62;70.48
53715;BME280;39608;55.630;37.864;2023-08-12T11:30:55;99668.34;;;21.30;71.53
53715;BME280;39608;55.630;37.864;2023-08-12T11:35:57;99650.41;;;21.01;72.15
53715;BME280;39608;55.630;37.864;2023-08-12T11:41:00;99650.50;;;20.85;72.93
53715;BME280;39608;55.630;37.864;2023-08-12T11:46:04;99634.31;;;20.83;73.27
53715;BME280;39608;55.630;37.864;2023-08-12T11:51:06;99627.56;;;20.81;73.85
53715;BME280;39608;55.630;37.864;2023-08-12T11:56:08;99626.41;;;20.82;73.97
53715;BME280;39608;55.630;37.864;2023-08-12T12:01:12;99631.09;;;20.81;73.79
53715;BME280;39608;55.630;37.864;2023-08-12T12:06:44;99638.38;;;20.54;74.27
53715;BME280;39608;55.630;37.864;2023-08-12T12:11:38;99611.09;;;20.49;74.29
53715;BME280;39608;55.630;37.864;2023-08-12T12:16:42;99611.34;;;20.44;75.64
53715;BME280;39608;55.630;37.864;2023-08-12T12:21:46;99607.31;;;20.38;75.67
53715;BME280;39608;55.630;37.864;2023-08-12T12:26:49;99606.84;;;20.35;75.90
53715;BME280;39608;55.630;37.864;2023-08-12T12:31:52;99592.22;;;20.31;76.06
53715;BME280;39608;55.630;37.864;2023-08-12T12:36:54;99566.94;;;20.10;76.63
53715;BME280;39608;55.630;37.864;2023-08-12T12:41:57;99500.91;;;19.94;77.92
53715;BME280;39608;55.630;37.864;2023-08-12T12:47:02;99485.16;;;19.94;78.02
53715;BME280;39608;55.630;37.864;2023-08-12T12:52:04;99489.53;;;19.95;78.47
53715;BME280;39608;55.630;37.864;2023-08-12T12:57:06;99489.22;;;20.00;78.54
53715;BME280;39608;55.630;37.864;2023-08-12T13:02:10;99509.38;;;20.05;78.95
53715;BME280;39608;55.630;37.864;2023-08-12T13:07:12;99514.88;;;20.05;78.87
53715;BME280;39608;55.630;37.864;2023-08-12T13:12:16;99489.22;;;20.00;79.33
53715;BME280;39608;55.630;37.864;2023-08-12T13:17:19;99512.66;;;20.10;79.40
53715;BME280;39608;55.630;37.864;2023-08-12T13:22:23;99530.75;;;20.27;79.27
53715;BME280;39608;55.630;37.864;2023-08-12T13:27:26;99537.44;;;20.46;79.27
53715;BME280;39608;55.630;37.864;2023-08-12T13:32:29;99524.25;;;20.75;79.18
53715;BME280;39608;55.630;37.864;2023-08-12T13:37:32;99520.19;;;20.88;78.02
53715;BME280;39608;55.630;37.864;2023-08-12T13:42:34;99501.13;;;20.79;78.83
53715;BME280;39608;55.630;37.864;2023-08-12T13:47:37;99481.31;;;20.93;78.85
53715;BME280;39608;55.630;37.864;2023-08-12T13:52:39;99479.59;;;20.85;78.57
53715;BME280;39608;55.630;37.864;2023-08-12T13:57:41;99495.53;;;20.76;78.59
53715;BME280;39608;55.630;37.864;2023-08-12T14:02:45;99483.66;;;20.72;79.05
53715;BME280;39608;55.630;37.864;2023-08-12T14:07:51;99462.78;;;20.71;78.45
53715;BME280;39608;55.630;37.864;2023-08-12T14:12:53;99477.56;;;20.82;78.44
53715;BME280;39608;55.630;37.864;2023-08-12T14:17:56;99481.00;;;20.98;78.20
53715;BME280;39608;55.630;37.864;2023-08-12T14:22:58;99472.50;;;21.07;77.87
53715;BME280;39608;55.630;37.864;2023-08-12T14:28:01;99483.84;;;21.25;77.34
53715;BME280;39608;55.630;37.864;2023-08-12T14:33:04;99490.50;;;21.47;77.08
53715;BME280;39608;55.630;37.864;2023-08-12T14:38:07;99488.63;;;21.75;75.99
53715;BME280;39608;55.630;37.864;2023-08-12T14:43:09;99479.66;;;21.81;75.94
53715;BME280;39608;55.630;37.864;2023-08-12T14:48:13;99472.44;;;23.39;72.87
53715;BME280;39608;55.630;37.864;2023-08-12T14:53:15;99458.59;;;25.26;66.87
53715;BME280;39608;55.630;37.864;2023-08-12T14:58:17;99473.16;;;26.35;62.84
53715;BME280;39608;55.630;37.864;2023-08-12T15:03:21;99464.38;;;26.44;63.12
53715;BME280;39608;55.630;37.864;2023-08-12T15:08:23;99436.31;;;26.17;61.69
53715;BME280;39608;55.630;37.864;2023-08-12T15:13:25;99419.59;;;26.27;61.04
53715;BME280;39608;55.630;37.864;2023-08-12T15:18:28;99423.72;;;26.72;59.73
53715;BME280;39608;55.630;37.864;2023-08-12T15:23:30;99443.50;;;26.88;58.11
53715;BME280;39608;55.630;37.864;2023-08-12T15:28:33;99441.78;;;26.31;59.01
53715;BME280;39608;55.630;37.864;2023-08-12T15:33:40;99455.72;;;26.20;61.34
53715;BME280;39608;55.630;37.864;2023-08-12T15:38:42;99436.03;;;25.50;61.55
53715;BME280;39608;55.630;37.864;2023-08-12T15:43:44;99439.81;;;24.48;64.34
53715;BME280;39608;55.630;37.864;2023-08-12T15:48:47;99456.84;;;23.69;67.42
53715;BME280;39608;55.630;37.864;2023-08-12T15:53:49;99450.94;;;23.22;68.28
53715;BME280;39608;55.630;37.864;2023-08-12T15:58:51;99442.50;;;23.11;68.54
53715;BME280;39608;55.630;37.864;2023-08-12T16:03:55;99443.66;;;23.06;68.94
53715;BME280;39608;55.630;37.864;2023-08-12T16:08:57;99435.16;;;22.85;69.02
53715;BME280;39608;55.630;37.864;2023-08-12T16:13:59;99449.19;;;22.69;69.42
53715;BME280;39608;55.630;37.864;2023-08-12T16:19:09;99442.00;;;22.61;69.93
53715;BME280;39608;55.630;37.864;2023-08-12T16:24:11;99445.44;;;22.50;69.81
53715;BME280;39608;55.630;37.864;2023-08-12T16:29:13;99436.75;;;22.48;69.83
53715;BME280;39608;55.630;37.864;2023-08-12T16:34:17;99422.88;;;22.45;69.81
53715;BME280;39608;55.630;37.864;2023-08-12T16:39:19;99429.38;;;22.29;70.12
53715;BME280;39608;55.630;37.864;2023-08-12T16:44:21;99432.38;;;22.17;70.19
53715;BME280;39608;55.630;37.864;2023-08-12T16:49:24;99436.00;;;22.21;70.64
53715;BME280;39608;55.630;37.864;2023-08-12T16:54:26;99445.13;;;22.25;70.02
53715;BME280;39608;55.630;37.864;2023-08-12T16:59:30;99451.09;;;22.31;69.63
53715;BME280;39608;55.630;37.864;2023-08-12T17:04:33;99471.69;;;22.33;69.99
53715;BME280;39608;55.630;37.864;2023-08-12T17:09:35;99483.88;;;22.32;69.89
53715;BME280;39608;55.630;37.864;2023-08-12T17:14:37;99478.34;;;22.29;69.98
53715;BME280;39608;55.630;37.864;2023-08-12T17:19:41;99486.50;;;22.21;70.74
53715;BME280;39608;55.630;37.864;2023-08-12T17:24:43;99479.63;;;22.08;71.42
53715;BME280;39608;55.630;37.864;2023-08-12T17:29:45;99489.03;;;22.03;70.94
53715;BME280;39608;55.630;37.864;2023-08-12T17:34:49;99482.66;;;21.99;71.40
53715;BME280;39608;55.630;37.864;2023-08-12T17:39:51;99473.31;;;21.81;71.51
53715;BME280;39608;55.630;37.864;2023-08-12T17:44:53;99476.63;;;21.63;72.43
53715;BME280;39608;55.630;37.864;2023-08-12T17:49:57;99472.78;;;21.48;72.91
53715;BME280;39608;55.630;37.864;2023-08-12T17:54:59;99471.44;;;21.39;73.35
53715;BME280;39608;55.630;37.864;2023-08-12T18:00:01;99468.09;;;21.26;73.65
53715;BME280;39608;55.630;37.864;2023-08-12T18:05:07;99467.03;;;21.11;74.65
53715;BME280;39608;55.630;37.864;2023-08-12T18:10:09;99465.63;;;20.97;74.55
53715;BME280;39608;55.630;37.864;2023-08-12T18:15:12;99464.78;;;20.93;74.85
53715;BME280;39608;55.630;37.864;2023-08-12T18:20:15;99451.72;;;20.90;75.01
53715;BME280;39608;55.630;37.864;2023-08-12T18:25:17;99454.34;;;20.83;75.25
53715;BME280;39608;55.630;37.864;2023-08-12T18:30:19;99445.94;;;20.76;75.63
53715;BME280;39608;55.630;37.864;2023-08-12T18:35:23;99445.66;;;20.81;75.39
53715;BME280;39608;55.630;37.864;2023-08-12T18:40:25;99444.41;;;20.78;75.46
53715;BME280;39608;55.630;37.864;2023-08-12T18:45:28;99435.72;;;20.76;75.31
53715;BME280;39608;55.630;37.864;2023-08-12T18:50:32;99427.09;;;20.78;75.43
53715;BME280;39608;55.630;37.864;2023-08-12T18:55:34;99420.56;;;20.66;75.56
53715;BME280;39608;55.630;37.864;2023-08-12T19:00:36;99441.66;;;20.59;76.06
53715;BME280;39608;55.630;37.864;2023-08-12T19:05:39;99443.69;;;20.62;76.42
53715;BME280;39608;55.630;37.864;2023-08-12T19:10:43;99435.03;;;20.63;75.56
53715;BME280;39608;55.630;37.864;2023-08-12T19:15:45;99442.16;;;20.64;75.54
53715;BME280;39608;55.630;37.864;2023-08-12T19:20:49;99436.81;;;20.72;75.62
53715;BME280;39608;55.630;37.864;2023-08-12T19:25:53;99445.53;;;20.74;75.64
53715;BME280;39608;55.630;37.864;2023-08-12T19:30:55;99428.13;;;20.70;75.68
53715;BME280;39608;55.630;37.864;2023-08-12T19:35:58;99435.03;;;20.63;75.90
53715;BME280;39608;55.630;37.864;2023-08-12T19:41:00;99421.94;;;20.57;75.63
53715;BME280;39608;55.630;37.864;2023-08-12T19:46:04;99421.94;;;20.57;75.93
53715;BME280;39608;55.630;37.864;2023-08-12T19:51:07;99421.13;;;20.76;75.17
53715;BME280;39608;55.630;37.864;2023-08-12T19:56:09;99433.41;;;21.01;74.49
53715;BME280;39608;55.630;37.864;2023-08-12T20:01:11;99426.91;;;21.13;73.88
53715;BME280;39608;55.630;37.864;2023-08-12T20:06:14;99424.63;;;21.19;74.05
53715;BME280;39608;55.630;37.864;2023-08-12T20:11:16;99427.69;;;21.14;74.08
53715;BME280;39608;55.630;37.864;2023-08-12T20:16:18;99429.28;;;21.15;74.18
53715;BME280;39608;55.630;37.864;2023-08-12T20:21:22;99422.25;;;21.17;73.90
53715;BME280;39608;55.630;37.864;2023-08-12T20:26:25;99413.50;;;21.12;74.06
53715;BME280;39608;55.630;37.864;2023-08-12T20:31:27;99422.88;;;21.07;73.73
53715;BME280;39608;55.630;37.864;2023-08-12T20:36:30;99416.72;;;20.94;73.98
53715;BME280;39608;55.630;37.864;2023-08-12T20:41:32;99397.25;;;20.83;74.12
53715;BME280;39608;55.630;37.864;2023-08-12T20:46:34;99402.81;;;20.87;74.19
53715;BME280;39608;55.630;37.864;2023-08-12T20:51:38;99393.66;;;20.79;74.36
53715;BME280;39608;55.630;37.864;2023-08-12T20:56:40;99402.28;;;20.58;74.46
53715;BME280;39608;55.630;37.864;2023-08-12T21:01:42;99406.34;;;20.64;74.04
53715;BME280;39608;55.630;37.864;2023-08-12T21:06:46;99401.28;;;20.66;74.15
53715;BME280;39608;55.630;37.864;2023-08-12T21:11:48;99401.44;;;20.54;74.29
53715;BME280;39608;55.630;37.864;2023-08-12T21:16:51;99392.53;;;20.41;74.41
53715;BME280;39608;55.630;37.864;2023-08-12T21:21:55;99402.25;;;20.35;74.77
53715;BME280;39608;55.630;37.864;2023-08-12T21:26:57;99379.94;;;20.21;75.52
53715;BME280;39608;55.630;37.864;2023-08-12T21:31:59;99379.72;;;20.10;75.21
53715;BME280;39608;55.630;37.864;2023-08-12T21:37:02;99384.13;;;19.95;75.78
53715;BME280;39608;55.630;37.864;2023-08-12T21:42:04;99385.78;;;19.80;76.10
53715;BME280;39608;55.630;37.864;2023-08-12T21:47:07;99386.41;;;19.73;76.23
53715;BME280;39608;55.630;37.864;2023-08-12T21:52:11;99389.84;;;19.86;76.21
53715;BME280;39608;55.630;37.864;2023-08-12T21:57:13;99377.31;;;19.89;76.30
53715;BME280;39608;55.630;37.864;2023-08-12T22:02:22;99372.22;;;19.91;76.35
53715;BME280;39608;55.630;37.864;2023-08-12T22:07:25;99370.81;;;19.97;76.20
53715;BME280;39608;55.630;37.864;2023-08-12T22:12:27;99369.97;;;19.77;76.55
53715;BME280;39608;55.630;37.864;2023-08-12T22:17:29;99379.69;;;19.90;76.00
53715;BME280;39608;55.630;37.864;2023-08-12T22:22:33;99387.97;;;19.90;76.06
53715;BME280;39608;55.630;37.864;2023-08-12T22:27:35;99372.72;;;19.77;76.70
53715;BME280;39608;55.630;37.864;2023-08-12T22:32:37;99374.50;;;20.05;75.80
53715;BME280;39608;55.630;37.864;2023-08-12T22:37:40;99368.69;;;19.90;76.21
53715;BME280;39608;55.630;37.864;2023-08-12T22:42:43;99355.16;;;19.81;76.09
53715;BME280;39608;55.630;37.864;2023-08-12T22:47:45;99358.13;;;19.92;76.17
53715;BME280;39608;55.630;37.864;2023-08-12T22:52:48;99353.88;;;19.79;76.13
53715;BME280;39608;55.630;37.864;2023-08-12T22:57:50;99343.66;;;19.95;76.13
53715;BME280;39608;55.630;37.864;2023-08-12T23:02:52;99347.78;;;19.86;75.67
53715;BME280;39608;55.630;37.864;2023-08-12T23:07:55;99341.63;;;19.76;75.76
53715;BME280;39608;55.630;37.864;2023-08-12T23:12:57;99347.53;;;19.94;75.68
53715;BME280;39608;55.630;37.864;2023-08-12T23:18:00;99333.66;;;19.87;75.76
53715;BME280;39608;55.630;37.864;2023-08-12T23:23:03;99342.91;;;19.98;75.84
53715;BME280;39608;55.630;37.864;2023-08-12T23:28:05;99327.13;;;19.95;75.83
53715;BME280;39608;55.630;37.864;2023-08-12T23:33:07;99334.50;;;19.91;75.49
53715;BME280;39608;55.630;37.864;2023-08-12T23:38:11;99334.06;;;19.89;75.82
53715;BME280;39608;55.630;37.864;2023-08-12T23:43:13;99330.28;;;19.78;75.62
53715;BME280;39608;55.630;37.864;2023-08-12T23:48:15;99335.34;;;19.76;75.85
53715;BME280;39608;55.630;37.864;2023-08-12T23:53:18;99330.91;;;19.87;76.09
53715;BME280;39608;55.630;37.864;2023-08-12T23:58:20;99324.53;;;19.83;75.58
